Caracarai, Brazil
Current Conditions -  °F | °C
As of 11:00 AM on Friday 24 Oct 2014 (Local Time) from SBBV Reporting Station
Broken Clouds Broken Clouds  
Wind Chill: 84°   Ceiling: 3000
Heat Index: 88°   Visibility: 6mi
Dew Point: 70°   Wind: 6mph
Humidity: 62%   Direction: 20°NNE
Pressure: 29.91"   Gusts: NA
Location:  1.82°N, 61.13°W
Report Text: SBBV 241500Z 02005KT 9999 BKN030 BKN090 29/21 Q1013
Loading
Personal Weather Stations






























Interactive Weather Map
Tropical Storm Tracking
New forecast layout! Learn more

10-Day Weather Forecast

Advertisements
Track Severe Weather on mobile